• Join FlightAware (Why Join?)
  • Login
  • US Flag 
04:48PM EST


 

Airport Tracker/Info


-or-


 

Live Flight TrackerFlight Track Log ✈ N144AB ✈ 10-Aug-2013 ✈ KOPF - MDPC / PUJ

Flight Track Log - Related Links

Times and Time Zones

All times are in EDT time to prevent confusion due to time zone crossing. See the N144AB flight status page for this flight to view local times or setup timezone preferences in your user account.

Time Position Orientation Groundspeed Altitude Reporting Facility
EDT Latitude Longitude Course Direction KTS MPH feet Rate Location/Type
08:51PM 25.8983 -80.2750 85° East 181 208 200  Level Miami Center
08:52PM 25.9058 -80.2197 81° East 176 203 2,000 720 Climbing Miami Center
08:53PM 25.9136 -80.1531 83° East 214 246 1,900  Descending Miami Center
08:55PM 25.9236 -80.0794 81° East 220 253 2,000 480 Climbing Miami Center
08:56PM 25.9333 -80.0172 80° East 201 231 3,000 1,200 Climbing Miami Center
08:57PM 25.9376 -79.7662 85° East  Level FlightAware Approximate
08:57PM 25.9469 -79.9669 73° East 167 192 4,500  Level Miami Center
08:58PM 25.9403 -79.8906 96° East 201 231 4,900 540 Climbing Miami Center
08:59PM 25.9500 -79.8189 81° East 223 257 5,700 1,380 Climbing Miami Center
09:00PM 25.9536 -79.7544 86° East 223 257 7,700 1,800 Climbing Miami Center
09:01PM 25.9589 -79.6967 84° East 201 231 9,400 1,500 Climbing Miami Center
09:02PM 25.9578 -79.6414 91° East 187 215 10,700 1,320 Climbing Miami Center
09:03PM 25.9611 -79.5814 86° East 187 215 12,100 1,380 Climbing Miami Center
09:04PM 25.9222 -79.5364 134° Southeast 174 200 13,500 1,320 Climbing Miami Center
09:05PM 25.8936 -79.4897 124° Southeast 185 213 14,800 1,320 Climbing Miami Center
09:06PM 25.8592 -79.4336 124° Southeast 196 226 16,200 1,200 Climbing Miami Center
09:07PM 25.8347 -79.3936 124° Southeast 196 226 17,200 1,080 Climbing Miami Center
09:08PM 25.7983 -79.3331 124° Southeast 201 231 18,400 1,140 Climbing Miami Center
09:09PM 25.7697 -79.2864 124° Southeast 201 231 19,500 1,080 Climbing Miami Center
09:10PM 25.7372 -79.2325 124° Southeast 201 231 20,600 1,020 Climbing Miami Center
09:11PM 25.7047 -79.1811 125° Southeast 201 231 21,600 960 Climbing Miami Center
09:12PM 25.6700 -79.1253 125° Southeast 206 237 22,600 900 Climbing Miami Center
09:13PM 25.6372 -79.0739 125° Southeast 206 237 23,500 840 Climbing Miami Center
09:14PM 25.6025 -79.0203 126° Southeast 206 237 24,300 780 Climbing Miami Center
09:15PM 25.5658 -78.9644 126° Southeast 212 244 25,100 720 Climbing Miami Center
09:16PM 25.5289 -78.9131 129° Southeast 222 255 25,800 720 Climbing Miami Center
09:17PM 25.4942 -78.8550 124° Southeast 222 255 26,600 600 Climbing Miami Center
09:18PM 25.4572 -78.7989 126° Southeast 228 262 27,000 240 Climbing Miami Center
09:19PM 25.4164 -78.7361 126° Southeast 238 274 27,100  Climbing Miami Center
09:20PM 25.3711 -78.6689 127° Southeast 250 288 27,100  Level Miami Center
09:21PM 25.3261 -78.6039 127° Southeast 261 300 27,100  Level Miami Center
09:22PM 25.2872 -78.5344 122° Southeast 266 306 27,100  Level Miami Center
09:23PM 25.2397 -78.4669 128° Southeast 271 312 27,100  Level Miami Center
09:24PM 25.1944 -78.3975 126° Southeast 271 312 27,100  Level Miami Center
09:25PM 25.1619 -78.3236 116° Southeast 271 312 27,100  Level Miami Center
09:26PM 25.1228 -78.2497 120° Southeast 271 312 27,100  Level Miami Center
09:27PM 25.0881 -78.1758 117° Southeast 271 312 27,100  Level Miami Center
09:28PM 25.0489 -78.1044 121° Southeast 271 312 27,100  Level Miami Center
09:29PM 25.0139 -78.0331 118° Southeast 271 312 27,100 -120 Level Miami Center
09:30PM 24.9747 -77.9639 122° Southeast 271 312 26,900 -60 Descending Miami Center
09:31PM 24.9378 -77.8925 120° Southeast 271 312 27,000  Climbing Miami Center
09:32PM 24.8983 -77.8211 121° Southeast 271 312 27,000  Level Miami Center
09:33PM 24.8614 -77.7497 120° Southeast 271 312 27,000  Level Miami Center
09:34PM 24.8219 -77.6786 121° Southeast 271 312 27,000  Level Miami Center
09:35PM 24.7828 -77.6072 121° Southeast 271 312 27,000  Level Miami Center
09:36PM 24.7433 -77.5339 121° Southeast 271 312 27,000  Level Miami Center
09:37PM 24.7061 -77.4628 120° Southeast 271 312 27,000  Level Miami Center
09:38PM 24.6667 -77.3917 121° Southeast 271 312 27,000  Level Miami Center
09:39PM 24.6314 -77.3206 119° Southeast 271 312 27,000  Level Miami Center
09:40PM 24.5897 -77.2497 123° Southeast 271 312 27,000  Level Miami Center
09:41PM 24.5522 -77.1786 120° Southeast 271 312 27,000  Level Miami Center
09:42PM 24.5125 -77.1078 122° Southeast 271 312 27,000  Level Miami Center
09:43PM 24.4731 -77.0347 121° Southeast 271 312 27,000  Level Miami Center
09:44PM 24.4356 -76.9661 121° Southeast 271 312 27,000  Level Miami Center
09:45PM 24.3958 -76.8931 121° Southeast 271 312 27,000  Level Miami Center
09:46PM 24.3581 -76.8247 121° Southeast 271 312 27,000  Level Miami Center
09:47PM 24.3183 -76.7539 122° Southeast 271 312 27,000  Level Miami Center
09:48PM 24.2808 -76.6811 119° Southeast 271 312 27,000  Level Miami Center
09:49PM 24.2408 -76.6103 122° Southeast 271 312 27,000  Level Miami Center
09:50PM 24.1969 -76.5331 122° Southeast 271 312 27,000  Level Miami Center
09:51PM 24.1592 -76.4625 120° Southeast 271 312 27,000  Level Miami Center
09:52PM 24.1233 -76.3989 122° Southeast 271 312 27,000  Level Miami Center
09:53PM 24.0833 -76.3286 122° Southeast 271 312 27,000  Level Miami Center
09:54PM 24.0433 -76.2581 122° Southeast 276 318 27,000  Level Miami Center
09:55PM 24.0033 -76.1878 122° Southeast 276 318 27,000  Level Miami Center
09:56PM 23.9633 -76.1131 120° Southeast 276 318 27,000  Level Miami Center
09:57PM 23.9233 -76.0428 122° Southeast 276 318 27,000  Level Miami Center
09:58PM 23.8831 -75.9703 121° Southeast 276 318 27,000  Level Miami Center
09:59PM 23.8431 -75.8978 121° Southeast 276 318 27,000  Level Miami Center
10:00PM 23.8050 -75.8278 121° Southeast 276 318 27,000  Level Miami Center
10:01PM 23.7647 -75.7531 120° Southeast 276 318 27,000  Level Miami Center
10:02PM 23.7244 -75.6833 122° Southeast 270 311 27,000  Level Miami Center
10:03PM 23.6842 -75.6086 120° Southeast 275 316 27,000  Level Miami Center
10:04PM 23.6417 -75.5389 124° Southeast 275 316 27,000  Level Miami Center
10:05PM 23.6014 -75.4689 122° Southeast 275 316 27,000  Level Miami Center
10:06PM 23.5611 -75.3992 122° Southeast 275 316 27,000  Level Miami Center
10:07PM 23.5206 -75.3269 121° Southeast 275 316 27,000  Level Miami Center
10:08PM 23.4758 -75.2483 122° Southeast 275 316 27,000  Level Miami Center
10:09PM 23.4353 -75.1786 122° Southeast 275 316 27,000  Level Miami Center
10:10PM 23.3928 -75.1067 123° Southeast 275 316 27,000  Level Miami Center
10:11PM 23.3542 -75.0350 120° Southeast 275 316 27,000  Level Miami Center
10:12PM 23.3117 -74.9653 124° Southeast 270 311 27,000  Level Miami Center
10:13PM 23.2731 -74.8936 120° Southeast 275 316 27,000  Level Miami Center
10:14PM 23.2303 -74.8242 124° Southeast 275 316 27,000  Level Miami Center
10:15PM 23.1897 -74.7525 122° Southeast 275 316 27,000  Level Miami Center
10:16PM 23.1489 -74.6831 123° Southeast 275 316 27,000  Level Miami Center
10:17PM 23.1061 -74.6139 124° Southeast 275 316 27,000  Level Miami Center
10:18PM 23.0675 -74.5422 120° Southeast 275 316 27,000  Level Miami Center
10:19PM 23.0289 -74.4731 121° Southeast 275 316 27,000  Level Miami Center
10:20PM 22.9881 -74.4014 122° Southeast 275 316 27,000  Level Miami Center
10:21PM 22.9472 -74.3325 123° Southeast 275 316 27,000  Level Miami Center
10:22PM 22.9083 -74.2611 121° Southeast 275 316 27,000  Level Miami Center
10:23PM 22.8675 -74.1919 123° Southeast 275 316 27,000  Level Miami Center
10:24PM 22.8244 -74.1253 125° Southeast 275 316 27,000  Level Miami Center
10:25PM 22.7833 -74.0517 121° Southeast 275 316 27,000  Level Miami Center
10:26PM 22.7444 -73.9828 121° Southeast 275 316 27,000  Level Miami Center
10:27PM 22.7036 -73.9139 123° Southeast 275 316 27,000  Level Miami Center
10:28PM 22.6603 -73.8428 123° Southeast 275 316 27,000  Level Miami Center
10:29PM 22.6192 -73.7742 123° Southeast 275 316 27,000  Level Miami Center
10:30PM 22.5803 -73.7053 121° Southeast 275 316 27,000  Level Miami Center
10:31PM 22.5411 -73.6342 121° Southeast 275 316 27,000  Level Miami Center
10:32PM 22.5000 -73.5678 124° Southeast 275 316 27,000  Level Miami Center
10:33PM 22.4672 -73.4947 116° Southeast 275 316 27,000  Level Miami Center
10:34PM 22.4197 -73.4261 127° Southeast 275 316 27,000  Level Miami Center
10:35PM 22.3783 -73.3578 123° Southeast 275 316 27,000  Level Miami Center
10:36PM 22.3392 -73.2892 122° Southeast 275 316 27,000  Level Miami Center
10:37PM 22.3000 -73.2183 121° Southeast 275 316 27,000  Level Miami Center
10:38PM 22.2564 -73.1500 125° Southeast 270 311 27,000  Level Miami Center
10:39PM 22.2194 -73.0839 121° Southeast 270 311 27,000  Level Miami Center
10:40PM 22.1758 -73.0156 125° Southeast 270 311 27,000  Level Miami Center
10:41PM 22.1411 -72.9561 122° Southeast 270 311 27,000  Level Miami Center
10:42PM 22.0994 -72.8856 123° Southeast 270 311 27,000  Level Miami Center
10:43PM 22.0603 -72.8197 123° Southeast 270 311 27,000  Level Miami Center
10:44PM 22.0186 -72.7492 122° Southeast 270 311 27,000  Level Miami Center
10:45PM 21.9772 -72.6833 124° Southeast 276 318 27,000  Level Miami Center
10:46PM 21.9378 -72.6131 121° Southeast 271 312 27,000  Level Miami Center
10:47PM 21.8961 -72.5450 123° Southeast 271 312 27,000  Level Miami Center
10:48PM 21.8544 -72.4772 124° Southeast 271 312 27,000  Level Miami Center
10:49PM 21.8128 -72.4092 123° Southeast 271 312 27,000  Level Miami Center
10:50PM 21.7711 -72.3392 123° Southeast 271 312 27,000  Level Miami Center
10:51PM 21.7317 -72.2733 123° Southeast 271 312 27,000  Level Miami Center
10:52PM 21.6900 -72.2033 123° Southeast 271 312 27,000  Level Miami Center
10:53PM 21.6503 -72.1378 123° Southeast 271 312 27,000  Level Miami Center
10:54PM 21.6086 -72.0703 124° Southeast 271 312 27,000  Level Miami Center
10:55PM 21.5689 -72.0047 123° Southeast 271 312 27,000  Level Miami Center
10:56PM 21.5292 -71.9369 122° Southeast 271 312 27,000  Level Miami Center
10:57PM 21.4875 -71.8717 124° Southeast 271 312 27,000  Level Miami Center
10:58PM 21.4456 -71.8042 124° Southeast 271 312 27,000  Level Miami Center
10:59PM 21.4058 -71.7344 121° Southeast 271 312 27,000  Level Miami Center
11:00PM 21.3639 -71.6647 123° Southeast 271 312 27,000  Level Miami Center
11:01PM 21.3219 -71.5972 124° Southeast 271 312 27,000  Level Miami Center
11:02PM 21.2800 -71.5300 124° Southeast 271 312 27,000  Level Miami Center
11:03PM 21.2378 -71.4606 123° Southeast 271 312 27,000  Level Miami Center
11:04PM 21.1914 -71.3844 123° Southeast 271 312 27,000  Level Miami Center
11:05PM 21.1472 -71.3172 125° Southeast 271 312 27,000  Level Miami Center
11:06PM 21.1072 -71.2478 122° Southeast 271 312 27,000  Level Miami Center
11:07PM 21.0650 -71.1808 124° Southeast 271 312 27,000  Level Miami Center
11:08PM 21.0231 -71.1114 123° Southeast 271 312 27,000  Level Miami Center
11:09PM 20.9808 -71.0422 123° Southeast 271 312 27,000  Level Miami Center
11:10PM 20.9386 -70.9753 124° Southeast 271 312 27,000  Level Miami Center
11:11PM 20.8964 -70.9061 123° Southeast 271 312 27,000  Level Miami Center
11:12PM 20.8458 -70.8439 131° Southeast 277 319 27,000  Level Miami Center
11:13PM 20.7975 -70.7794 129° Southeast 282 325 27,000  Level Miami Center
11:14PM 20.7450 -70.7153 131° Southeast 282 325 27,000  Level Miami Center
11:15PM 20.6967 -70.6511 129° Southeast 282 325 27,000  Level Miami Center
11:16PM 20.6481 -70.5869 129° Southeast 282 325 27,000  Level Miami Center
11:17PM 20.5997 -70.5228 129° Southeast 282 325 27,000  Level Miami Center
11:18PM 20.5514 -70.4608 130° Southeast 282 325 27,000  Level Miami Center
11:19PM 20.5008 -70.3992 131° Southeast 282 325 27,000  Level Miami Center
11:20PM 20.4522 -70.3328 128° Southeast 282 325 27,000  Level Miami Center
11:21PM 20.4017 -70.2711 131° Southeast 282 325 27,000  Level Miami Center
11:22PM 20.3553 -70.2092 129° Southeast 282 325 27,000  Level Miami Center
11:23PM 20.3025 -70.1456 131° Southeast 282 325 27,000  Level Miami Center
11:24PM 20.2539 -70.0794 128° Southeast 282 325 27,000  Level Miami Center
11:25PM 20.2033 -70.0181 131° Southeast 282 325 27,000  Level Miami Center
11:26PM 20.1547 -69.9542 129° Southeast 282 325 27,000  Level Miami Center
11:27PM 20.1039 -69.8883 129° Southeast 282 325 27,000  Level Miami Center
11:29PM 20.0255 -69.7806 128° Southeast  Level FlightAware Approximate
11:36PM 19.6630 -69.4129 137° Southeast  Level FlightAware Approximate
11:37PM 19.6107 -69.3607 137° Southeast  Level FlightAware Approximate
11:38PM 19.5585 -69.3084 137° Southeast  Level FlightAware Approximate
11:39PM 19.5063 -69.2562 137° Southeast  Level FlightAware Approximate
11:40PM 19.4540 -69.2040 137° Southeast  Level FlightAware Approximate
11:41PM 19.4018 -69.1517 137° Southeast  Level FlightAware Approximate
11:42PM 19.3497 -69.0995 137° Southeast  Level FlightAware Approximate
11:43PM 19.2975 -69.0473 137° Southeast  Level FlightAware Approximate
11:44PM 19.2453 -68.9951 137° Southeast  Level FlightAware Approximate
11:45PM 19.1931 -68.9429 137° Southeast  Level FlightAware Approximate
11:46PM 19.1408 -68.8908 137° Southeast  Level FlightAware Approximate
11:47PM 19.0887 -68.8386 137° Southeast  Level FlightAware Approximate
11:48PM 19.0365 -68.7865 137° Southeast  Level FlightAware Approximate
11:49PM 18.9820 -68.7371 140° Southeast  Level FlightAware Approximate
11:50PM 18.9274 -68.6879 140° Southeast  Level FlightAware Approximate
11:51PM 18.8727 -68.6387 140° Southeast  Level FlightAware Approximate
11:52PM 18.8203 -68.5869 137° Southeast  Level FlightAware Approximate
11:53PM 18.7682 -68.5348 137° Southeast  Level FlightAware Approximate
11:54PM 18.7160 -68.4827 137° Southeast  Level FlightAware Approximate
11:55PM 18.6616 -68.4337 145° Southeast  Level FlightAware Approximate
11:56PM 18.6063 -68.3862 128° Southeast  Level FlightAware Approximate
11:57PM 18.5674 -68.3634 128° Southeast  Level Estimated
11:58PM 18.5674 -68.3634 128° Southeast  Level Estimated
11:59PM 18.5674 -68.3634 128° Southeast  Level Estimated
12:00AM 18.5674 -68.3634 128° Southeast  Level Estimated
12:01AM 18.5674 -68.3634 128° Southeast  Level Estimated
12:02AM 18.5674 -68.3634 128° Southeast  Level Estimated
12:03AM 18.5674 -68.3634 128° Southeast  Level Estimated
12:04AM 18.5674 -68.3634 128° Southeast  Level Estimated
12:05AM 18.5674 -68.3634 128° Southeast  Level Estimated
12:06AM 18.5674 -68.3634 128° Southeast  Level Estimated
12:07AM 18.5674 -68.3634 128° Southeast  Level Estimated
12:08AM 18.5674 -68.3634 128° Southeast  Level Estimated
12:09AM 18.5674 -68.3634 128° Southeast  Level Estimated
12:10AM 18.5674 -68.3634 128° Southeast  Level Estimated
12:11AM 18.5674 -68.3634 128° Southeast  Level Estimated